Phillips, Maine
Current Conditions -  °F | °C
As of 12:55 PM on Wednesday 28 Jan 2015 (Local Time) from KWVL Reporting Station
Broken Clouds Broken Clouds  
Wind Chill:   Ceiling: 11000
Heat Index: 19°   Visibility: 10mi
Dew Point: 16°   Wind: 17mph
Humidity: 86%   Direction: 330°NNW
Pressure: 29.86"   Gusts: 21mph
Location:  44.82°N, 70.34°W
Report Text: KWVL 281755Z 33015G18KT 10SM BKN110 M07/M09 A2986 RMK AO1 11070 21110 52003
Loading
Personal Weather Stations






























Interactive Weather Map New forecast layout! Learn more

10-Day Weather Forecast

Advertisements
Track Severe Weather on mobile